Casville, North Carolina
Current Conditions -  °F | °C
As of 8:53 AM on Wednesday 26 Nov 2014 (Local Time) from KDAN Reporting Station
Moderate Rain Moderate Rain  
Wind Chill: 39°   Ceiling: 900
Heat Index: 44°   Visibility: 7mi
Dew Point: 40°   Wind: 9mph
Humidity: 85%   Direction: 40°NE
Pressure: 29.99"   Gusts: NA
Location:  36.4355°N, 79.5464°W
Report Text: KDAN 261353Z AUTO 04008KT 7SM RA BKN009 BKN015 OVC050 07/04 A2999 RMK AO2 SLP152 P0010 T00670044
Loading
Personal Weather Stations






























Interactive Weather Map New forecast layout! Learn more

10-Day Weather Forecast

Advertisements
Track Severe Weather on mobile